createdAt,value
2023-01-04T00:04:32.595Z,78.00392
2023-01-04T00:09:34.353Z,79.75206
2023-01-04T00:14:36.122Z,85.10255
2023-01-04T00:19:37.917Z,80.87315
2023-01-04T00:24:39.535Z,78.71387
2023-01-04T00:29:41.332Z,77.20724
2023-01-04T00:34:44.011Z,75.23985
2023-01-04T00:39:45.829Z,78.0914
2023-01-04T00:44:47.632Z,78.4613
2023-01-04T00:49:49.120Z,78.79874
2023-01-04T00:54:50.882Z,80.80065
2023-01-04T00:59:52.678Z,79.07703
2023-01-04T01:04:54.540Z,78.02327
2023-01-04T01:09:56.277Z,80.58509
2023-01-04T01:15:00.612Z,79.94809
2023-01-04T01:20:02.852Z,78.54067
2023-01-04T01:25:04.524Z,82.75061
2023-01-04T01:30:06.044Z,80.68948
2023-01-04T01:35:08.298Z,80.95987
2023-01-04T01:40:09.800Z,81.16549
2023-01-04T01:45:11.329Z,82.00542
2023-01-04T01:50:12.913Z,82.36608
2023-01-04T01:55:14.499Z,84.05187
2023-01-04T02:00:16.176Z,84.21137
2023-01-04T02:05:18.017Z,85.76343
2023-01-04T02:10:19.777Z,84.46627
2023-01-04T02:15:21.473Z,84.31564
2023-01-04T02:20:23.282Z,83.50775
2023-01-04T02:25:25.155Z,83.14888
2023-01-04T02:30:26.958Z,83.64383
2023-01-04T02:35:29.124Z,83.58767
2023-01-04T02:40:30.880Z,85.08954
2023-01-04T02:45:32.672Z,85.20551
2023-01-04T02:50:34.365Z,85.81155
2023-01-04T02:55:36.044Z,87.64182
2023-01-04T03:00:37.720Z,84.81124
2023-01-04T03:05:39.643Z,84.245
2023-01-04T03:10:41.374Z,83.76933
2023-01-04T03:15:43.099Z,82.82066
2023-01-04T03:20:45.040Z,82.09964
2023-01-04T03:25:46.887Z,85.52047
2023-01-04T03:30:48.660Z,84.10452
2023-01-04T03:35:50.691Z,85.11401
2023-01-04T03:40:52.473Z,89.68591
2023-01-04T03:45:54.238Z,85.43315
2023-01-04T03:50:55.920Z,84.4958
2023-01-04T03:55:57.916Z,85.48401
2023-01-04T04:00:59.782Z,84.36701
2023-01-04T04:06:01.876Z,90.37623
2023-01-04T04:11:03.690Z,88.50393
2023-01-04T04:16:05.456Z,86.66725
2023-01-04T04:21:07.221Z,84.5297
2023-01-04T04:26:08.856Z,86.34116
2023-01-04T04:31:10.338Z,86.66494
2023-01-04T04:36:11.993Z,85.98205
2023-01-04T04:41:13.517Z,88.40651
2023-01-04T04:46:15.094Z,87.96229
2023-01-04T04:51:16.740Z,84.00753
2023-01-04T04:56:18.217Z,79.70792
2023-01-04T05:01:19.931Z,79.23353
2023-01-04T05:06:22.200Z,73.40038
2023-01-04T05:11:23.691Z,71.83191
2023-01-04T05:16:25.228Z,70.81062
2023-01-04T05:21:26.864Z,67.46468
2023-01-04T05:26:28.368Z,62.99972
2023-01-04T05:31:29.961Z,61.26785
2023-01-04T05:36:32.187Z,63.8185
2023-01-04T05:41:33.660Z,59.48172
2023-01-04T05:46:35.203Z,59.15426
2023-01-04T05:51:37.010Z,58.00551
2023-01-04T05:56:38.462Z,54.33584
2023-01-04T06:01:40.000Z,53.60286
2023-01-04T06:06:41.702Z,52.73003
2023-01-04T06:11:43.461Z,51.48616
2023-01-04T06:16:44.997Z,50.64852
2023-01-04T06:21:46.627Z,49.988
2023-01-04T06:26:48.066Z,51.95391
2023-01-04T06:31:49.627Z,53.64543
2023-01-04T06:36:51.274Z,50.38722
2023-01-04T06:41:52.882Z,50.42732
2023-01-04T06:46:54.467Z,49.63106
2023-01-04T06:51:56.222Z,49.53678
2023-01-04T06:56:58.011Z,45.42836
2023-01-04T07:01:59.955Z,45.56435
2023-01-04T07:07:01.957Z,48.29209
2023-01-04T07:12:03.700Z,43.02056
2023-01-04T07:17:08.568Z,43.84391
2023-01-04T07:22:10.226Z,42.02554
2023-01-04T07:27:11.735Z,41.43891
2023-01-04T07:32:14.134Z,43.79548
2023-01-04T07:37:15.957Z,42.13334
2023-01-04T07:42:17.908Z,43.00536
2023-01-04T07:47:19.557Z,41.0035
2023-01-04T07:52:21.498Z,39.66527
2023-01-04T07:57:23.239Z,42.17625
2023-01-04T08:02:25.171Z,40.44054
2023-01-04T08:07:27.062Z,39.54479
2023-01-04T08:12:28.822Z,40.99219
2023-01-04T08:17:30.640Z,42.97803
2023-01-04T08:22:32.663Z,40.9229
2023-01-04T08:27:34.475Z,41.80468
2023-01-04T08:32:36.240Z,37.10514
2023-01-04T08:37:37.827Z,40.02731
2023-01-04T08:42:39.643Z,36.8117
2023-01-04T08:47:41.450Z,38.68202
2023-01-04T08:52:43.402Z,41.72371
2023-01-04T08:57:45.172Z,41.19909
2023-01-04T09:02:47.059Z,42.2335
2023-01-04T09:07:48.850Z,41.29368
2023-01-04T09:12:50.620Z,39.51216
2023-01-04T09:18:29.437Z,38.42787
2023-01-04T09:23:33.098Z,40.25963
2023-01-04T09:28:34.569Z,41.57652
2023-01-04T09:34:12.286Z,42.23178
2023-01-04T09:39:21.762Z,42.86119
2023-01-04T09:44:39.719Z,42.45682
2023-01-04T09:49:56.951Z,40.07907
2023-01-04T09:55:02.829Z,41.47688
2023-01-04T10:00:43.916Z,39.18929
2023-01-04T10:05:45.954Z,40.53578
2023-01-04T10:10:47.445Z,39.91451
2023-01-04T10:15:49.096Z,37.55286
2023-01-04T10:21:30.019Z,38.36849
2023-01-04T10:26:35.573Z,39.40518
2023-01-04T10:31:40.279Z,40.95754
2023-01-04T10:36:43.310Z,40.84674
2023-01-04T10:41:45.040Z,43.27014
2023-01-04T10:46:46.780Z,41.45063
2023-01-04T10:51:48.599Z,42.78697
2023-01-04T10:56:50.254Z,39.18278
2023-01-04T11:01:52.202Z,39.04331
2023-01-04T11:06:54.056Z,37.59048
2023-01-04T11:11:55.718Z,38.97717
2023-01-04T11:16:57.440Z,35.74687
2023-01-04T11:21:59.227Z,35.34386
2023-01-04T11:27:01.211Z,37.32057
2023-01-04T11:32:02.824Z,35.96753
2023-01-04T11:37:04.377Z,36.57564
2023-01-04T11:42:05.948Z,38.64395
2023-01-04T11:47:07.521Z,38.48176
2023-01-04T11:52:09.196Z,36.8599
2023-01-04T11:57:11.688Z,36.88605
2023-01-04T12:02:28.557Z,37.84468
2023-01-04T12:07:44.702Z,38.05023
2023-01-04T12:12:46.523Z,37.12075
2023-01-04T12:17:48.291Z,37.51589
2023-01-04T12:22:50.359Z,37.55916
2023-01-04T12:27:52.373Z,38.20133
2023-01-04T12:32:54.201Z,38.70805
2023-01-04T12:37:56.110Z,38.18499
2023-01-04T12:42:57.882Z,40.88815
2023-01-04T12:47:59.540Z,40.17389
2023-01-04T12:53:28.312Z,40.29208
2023-01-04T12:59:06.890Z,39.55935
2023-01-04T13:04:25.165Z,39.94683
2023-01-04T13:09:27.089Z,39.24208
2023-01-04T13:14:28.574Z,40.17648
2023-01-04T13:19:30.154Z,42.96853
2023-01-04T13:24:31.845Z,46.32711
2023-01-04T13:29:33.663Z,46.06404
2023-01-04T13:34:35.373Z,46.19903
2023-01-04T13:39:36.942Z,46.69992
2023-01-04T13:45:09.381Z,49.1652
2023-01-04T13:50:19.976Z,52.04235
2023-01-04T13:55:21.643Z,54.08444
2023-01-04T14:00:23.561Z,53.85748
2023-01-04T14:05:25.033Z,55.59437
2023-01-04T14:10:26.635Z,53.89512
2023-01-04T14:15:28.171Z,54.1289
2023-01-04T14:20:29.610Z,53.70193
2023-01-04T14:25:31.127Z,55.4999
2023-01-04T14:30:32.874Z,57.41035
2023-01-04T14:35:37.055Z,60.27418
2023-01-04T14:40:42.051Z,61.0189
2023-01-04T14:45:43.825Z,60.65909
2023-01-04T14:50:45.588Z,61.00553
2023-01-04T14:55:47.183Z,61.17113
2023-01-04T15:00:49.174Z,61.7799
2023-01-04T15:05:50.679Z,60.29226
2023-01-04T15:10:57.880Z,58.73443
2023-01-04T15:16:01.491Z,58.66132
2023-01-04T15:21:03.005Z,57.49434
2023-01-04T15:26:04.584Z,59.7771
2023-01-04T15:31:06.406Z,60.32359
2023-01-04T15:36:08.289Z,62.31166
2023-01-04T15:41:09.826Z,61.07163
2023-01-04T15:46:11.555Z,62.07864
2023-01-04T15:51:13.062Z,61.2486
2023-01-04T15:56:14.701Z,60.15358
2023-01-04T16:01:16.482Z,62.32356
2023-01-04T16:06:18.146Z,61.28898
2023-01-04T16:11:19.648Z,62.05049
2023-01-04T16:16:21.253Z,63.9315
2023-01-04T16:21:22.842Z,63.41493
2023-01-04T16:26:24.462Z,63.23832
2023-01-04T16:31:26.245Z,64.04405
2023-01-04T16:36:27.867Z,66.14283
2023-01-04T16:41:29.319Z,64.67605
2023-01-04T16:46:30.817Z,64.35637
2023-01-04T16:51:32.329Z,65.00429
2023-01-04T16:56:34.168Z,66.09628
2023-01-04T17:01:38.327Z,65.52396
2023-01-04T17:06:42.096Z,66.54211
2023-01-04T17:17:20.521Z,66.84534
2023-01-04T17:22:22.261Z,66.36861
2023-01-04T17:27:24.029Z,67.58089
2023-01-04T17:32:25.892Z,66.60093
2023-01-04T17:37:27.339Z,66.91115
2023-01-04T17:42:28.795Z,67.04053
2023-01-04T17:47:30.600Z,67.21804
2023-01-04T17:52:32.236Z,68.82408
2023-01-04T17:57:34.010Z,69.72051
2023-01-04T18:02:35.975Z,68.90298
2023-01-04T18:07:37.524Z,69.53277
2023-01-04T18:12:39.349Z,71.05471
2023-01-04T18:17:41.125Z,70.73252
2023-01-04T18:22:42.867Z,70.02035
2023-01-04T18:27:44.586Z,74.36609
2023-01-04T18:32:46.799Z,76.38127
2023-01-04T18:37:48.579Z,76.91927
2023-01-04T18:42:50.134Z,80.32309
2023-01-04T18:47:51.915Z,79.17182
2023-01-04T18:52:53.725Z,75.5162
2023-01-04T18:57:55.528Z,74.32318
2023-01-04T19:02:57.746Z,75.64494
2023-01-04T19:07:59.575Z,76.02795
2023-01-04T19:13:01.659Z,78.15191
2023-01-04T19:18:03.440Z,76.77648
2023-01-04T19:23:05.461Z,77.6553
2023-01-04T19:28:07.355Z,79.39605
2023-01-04T19:33:09.307Z,80.73572
2023-01-04T19:38:11.058Z,77.49677
2023-01-04T19:43:12.525Z,77.81725
2023-01-04T19:48:14.306Z,79.40521
2023-01-04T19:53:15.803Z,78.51628
2023-01-04T19:58:17.334Z,77.96936
2023-01-04T20:03:19.126Z,77.39518
2023-01-04T20:08:20.833Z,80.75319
2023-01-04T20:13:22.312Z,78.98428
2023-01-04T20:18:23.867Z,76.87596
2023-01-04T20:23:25.423Z,79.78328
2023-01-04T20:28:26.878Z,79.30119
2023-01-04T20:33:28.519Z,78.31303
2023-01-04T20:38:32.531Z,77.7903
2023-01-04T20:43:36.338Z,77.74655
2023-01-04T20:48:37.825Z,79.99432
2023-01-04T20:53:39.473Z,79.26546
2023-01-04T20:58:41.097Z,80.84211
2023-01-04T21:03:43.024Z,82.82149
2023-01-04T21:08:44.527Z,80.52476
2023-01-04T21:13:46.148Z,81.45234
2023-01-04T21:18:47.929Z,82.11124
2023-01-04T21:23:54.733Z,80.88446
2023-01-04T21:28:59.507Z,79.73988
2023-01-04T21:34:01.128Z,79.35409
2023-01-04T21:39:02.937Z,81.79709
2023-01-04T21:44:04.654Z,80.32983
2023-01-04T21:49:06.124Z,81.11692
2023-01-04T21:54:07.950Z,81.93451
2023-01-04T21:59:09.594Z,81.90803
2023-01-04T22:04:11.608Z,80.8627
2023-01-04T22:09:13.177Z,81.01631
2023-01-04T22:14:14.617Z,81.93986
2023-01-04T22:19:16.065Z,83.10707
2023-01-04T22:24:17.647Z,84.53907
2023-01-04T22:29:19.154Z,82.71806
2023-01-04T22:34:20.797Z,82.91152
2023-01-04T22:39:22.490Z,83.88896
2023-01-04T22:44:23.939Z,81.71115
2023-01-04T22:49:25.427Z,81.74694
2023-01-04T22:54:26.885Z,81.84878
2023-01-04T22:59:28.433Z,81.28598
2023-01-04T23:04:30.104Z,81.73226
2023-01-04T23:09:31.928Z,82.50837
2023-01-04T23:14:33.741Z,82.24798
2023-01-04T23:19:35.488Z,80.83502
2023-01-04T23:24:37.229Z,81.44469
2023-01-04T23:29:38.995Z,80.19297
2023-01-04T23:34:41.068Z,81.20242
2023-01-04T23:39:42.881Z,81.35223
2023-01-04T23:44:44.666Z,80.68248
2023-01-04T23:49:46.482Z,81.50465
2023-01-04T23:54:48.243Z,81.64856
2023-01-04T23:59:50.018Z,82.31877
